Terminal Aerodrome Forecast
Issued by NWS

Home | Current Version | Previous Version | Text Only | Print | Product List | Glossary On
Versions: 1 2 3 4 5 6 7 8 9 10 11 12 13 14 15 16 17
000
FTUS43 KOAX 220500
TAFSNY
TAF
KSNY 220520Z 2206/2306 18011KT P6SM VCSH BKN080
     FM220800 25010KT P6SM VCSH BKN080
     FM221000 32012KT P6SM BKN080
     FM221500 34015G25KT P6SM BKN080
     FM221900 36010KT P6SM SCT080
     FM230200 15006KT P6SM SCT080=

USA.gov is the U.S. government's official web portal to all federal, state and local government web resources and services.